Time;durP1;ratioP1;P1;durP2;ratioP2;P2;SDS_P1;SDS_P2;PMS_P1;PMS_P2;Temp;Humidity;BMP_temperature;BMP_pressure;BME280_temperature;BME280_humidity;BME280_pressure;Samples;Min_cycle;Max_cycle;Signal;HPM_P1;HPM_P2
2022/07/03 00:00:36;;;;;;;5.37;2.50;;;15.50;99.90;;;;;;5095587;28;20176;-78
2022/07/03 00:03:02;;;;;;;4.13;1.73;;;15.50;99.90;;;;;;5095192;28;20684;-78
2022/07/03 00:05:28;;;;;;;4.47;1.70;;;15.50;99.90;;;;;;5095099;28;20253;-76
2022/07/03 00:07:54;;;;;;;2.73;1.57;;;15.50;99.90;;;;;;5095854;28;20667;-80
2022/07/03 00:10:20;;;;;;;2.90;1.50;;;15.50;99.90;;;;;;5095626;28;20438;-78
2022/07/03 00:12:45;;;;;;;2.80;1.40;;;15.50;99.90;;;;;;5095464;28;20188;-78
2022/07/03 00:15:11;;;;;;;3.10;1.50;;;15.50;99.90;;;;;;5085649;28;20188;-79
2022/07/03 00:17:37;;;;;;;3.27;2.00;;;15.60;99.90;;;;;;5088202;28;20180;-77
2022/07/03 00:20:03;;;;;;;2.60;1.20;;;15.50;99.90;;;;;;5094229;28;20187;-79
2022/07/03 00:22:32;;;;;;;2.60;1.47;;;15.50;99.90;;;;;;5097061;28;20196;-77
2022/07/03 00:25:04;;;;;;;4.23;1.73;;;15.40;99.90;;;;;;5097157;28;20300;-77
2022/07/03 00:27:33;;;;;;;4.63;1.30;;;15.50;99.90;;;;;;5096773;28;20432;-81
2022/07/03 00:30:00;;;;;;;4.30;1.63;;;15.50;99.90;;;;;;5097266;28;20476;-78
2022/07/03 00:32:27;;;;;;;2.23;1.10;;;15.50;99.90;;;;;;5096284;28;20487;-79
2022/07/03 00:34:55;;;;;;;2.00;1.20;;;15.50;99.90;;;;;;5096766;28;20418;-77
2022/07/03 00:37:21;;;;;;;2.10;1.20;;;15.50;99.90;;;;;;5098657;28;20453;-78
2022/07/03 00:39:50;;;;;;;2.83;1.27;;;15.60;99.90;;;;;;5113631;28;20529;-81
2022/07/03 00:42:17;;;;;;;5.83;1.80;;;15.60;99.90;;;;;;5106777;28;20448;-83
2022/07/03 00:44:54;;;;;;;2.40;1.20;;;15.60;99.90;;;;;;5117976;28;20512;-84
2022/07/03 00:47:25;;;;;;;3.83;1.50;;;15.60;99.90;;;;;;5118632;28;20490;-82
2022/07/03 00:49:55;;;;;;;4.23;1.40;;;15.60;99.90;;;;;;5118484;28;20430;-84
2022/07/03 00:52:21;;;;;;;1.80;1.10;;;15.60;99.90;;;;;;5117864;28;20434;-81
2022/07/03 00:54:58;;;;;;;4.10;1.03;;;15.60;99.90;;;;;;5118167;28;20426;-81
2022/07/03 00:57:29;;;;;;;2.47;1.50;;;15.70;99.90;;;;;;5086016;28;20431;-77
2022/07/03 00:59:55;;;;;;;2.73;1.67;;;15.60;99.90;;;;;;5087307;28;20422;-76
2022/07/03 01:02:27;;;;;;;8.53;1.50;;;15.60;99.90;;;;;;5091577;28;20550;-79
2022/07/03 01:05:09;;;;;;;3.20;1.40;;;15.60;99.90;;;;;;5093149;28;20469;-78
2022/07/03 01:07:48;;;;;;;2.20;1.00;;;15.60;99.90;;;;;;5080230;28;20497;-78
2022/07/03 01:10:55;;;;;;;3.30;1.47;;;15.60;99.90;;;;;;5091364;28;20907;-79
2022/07/03 01:13:56;;;;;;;2.23;1.30;;;15.70;99.90;;;;;;5091930;28;20442;-78
2022/07/03 01:16:27;;;;;;;7.87;1.40;;;15.80;99.90;;;;;;5091049;28;20418;-77
2022/07/03 01:19:03;;;;;;;2.70;1.40;;;15.80;99.90;;;;;;5087266;28;20444;-77
2022/07/03 01:22:01;;;;;;;1.60;0.90;;;15.90;99.90;;;;;;5081025;28;20427;-73
2022/07/03 01:24:45;;;;;;;2.93;1.30;;;15.80;99.90;;;;;;5087967;28;21005;-78
2022/07/03 01:27:18;;;;;;;1.83;1.00;;;15.80;99.90;;;;;;5092340;28;20485;-77
2022/07/03 01:30:02;;;;;;;10.00;1.73;;;15.70;99.90;;;;;;5089396;28;20446;-77
2022/07/03 01:32:32;;;;;;;3.50;1.07;;;15.60;99.90;;;;;;5088884;28;20453;-77
2022/07/03 01:35:01;;;;;;;1.80;1.00;;;15.60;99.90;;;;;;5090606;28;20422;-79
2022/07/03 01:37:31;;;;;;;2.40;1.30;;;15.50;99.90;;;;;;5090804;28;20425;-79
2022/07/03 01:39:58;;;;;;;2.37;1.33;;;15.40;99.90;;;;;;5089443;28;20422;-78
2022/07/03 01:42:24;;;;;;;5.07;1.87;;;15.40;99.90;;;;;;5089914;28;20518;-77
2022/07/03 01:44:52;;;;;;;2.50;1.50;;;15.30;99.90;;;;;;5092095;28;20539;-78
2022/07/03 01:47:20;;;;;;;4.10;1.40;;;15.20;99.90;;;;;;5091493;28;20454;-77
2022/07/03 01:49:49;;;;;;;6.30;1.40;;;15.20;99.90;;;;;;5092485;28;20472;-78
2022/07/03 01:52:16;;;;;;;6.10;1.97;;;15.10;99.90;;;;;;5084549;28;20439;-79
2022/07/03 01:54:44;;;;;;;3.60;1.30;;;15.10;99.90;;;;;;5082903;28;20423;-80
2022/07/03 01:57:10;;;;;;;3.57;1.60;;;15.10;99.90;;;;;;5091880;28;20448;-80
2022/07/03 01:59:36;;;;;;;3.13;1.60;;;15.10;99.90;;;;;;5090772;28;20513;-79
2022/07/03 02:02:12;;;;;;;5.43;1.07;;;15.00;99.90;;;;;;5091084;28;20188;-79
2022/07/03 02:04:53;;;;;;;2.43;1.10;;;15.00;99.90;;;;;;5091611;28;20212;-78
2022/07/03 02:07:29;;;;;;;5.30;1.40;;;15.00;99.90;;;;;;5091798;28;20421;-78
2022/07/03 02:10:05;;;;;;;2.90;1.30;;;15.00;99.90;;;;;;5091734;28;20434;-77
2022/07/03 02:12:51;;;;;;;2.60;1.27;;;15.10;99.90;;;;;;5071291;28;20462;-80
2022/07/03 02:15:23;;;;;;;2.97;1.53;;;15.00;99.90;;;;;;5102634;28;20943;-77
2022/07/03 02:17:51;;;;;;;2.57;1.47;;;15.00;99.90;;;;;;5094394;28;20418;-77
2022/07/03 02:20:18;;;;;;;3.60;1.70;;;15.10;99.90;;;;;;5094515;28;20434;-82
2022/07/03 02:22:56;;;;;;;2.37;1.40;;;15.10;99.90;;;;;;5111221;28;20497;-85
2022/07/03 02:25:24;;;;;;;3.20;1.47;;;15.10;99.90;;;;;;5116499;28;20604;-84
2022/07/03 02:27:57;;;;;;;2.77;1.30;;;15.10;99.90;;;;;;5116545;28;20426;-84
2022/07/03 02:30:24;;;;;;;2.40;1.40;;;15.10;99.90;;;;;;5115466;28;20440;-84
2022/07/03 02:32:52;;;;;;;3.63;1.33;;;15.10;99.90;;;;;;5113749;28;20519;-81
2022/07/03 02:35:32;;;;;;;2.30;1.20;;;15.10;99.90;;;;;;5090394;28;20530;-78
2022/07/03 02:38:19;;;;;;;2.80;1.33;;;15.00;99.90;;;;;;5089215;28;20445;-78
2022/07/03 02:41:19;;;;;;;2.30;1.30;;;15.00;99.90;;;;;;5087725;28;20430;-79
2022/07/03 02:44:12;;;;;;;4.47;1.50;;;15.10;99.90;;;;;;5076580;28;20438;-77
2022/07/03 02:46:49;;;;;;;4.60;1.47;;;15.10;99.90;;;;;;5089455;28;20468;-77
2022/07/03 02:49:39;;;;;;;2.47;1.33;;;15.10;99.90;;;;;;5090617;28;21013;-78
2022/07/03 02:52:10;;;;;;;5.03;1.53;;;15.10;99.90;;;;;;5090494;28;20461;-79
2022/07/03 02:54:45;;;;;;;2.57;1.33;;;15.20;99.90;;;;;;5089580;28;20711;-78
2022/07/03 02:57:12;;;;;;;3.10;1.33;;;15.20;99.90;;;;;;5091002;28;20505;-78
2022/07/03 02:59:56;;;;;;;4.73;1.07;;;15.30;99.90;;;;;;5090636;28;20407;-78
2022/07/03 03:02:22;;;;;;;3.13;1.57;;;15.30;99.90;;;;;;5076956;28;20448;-77
2022/07/03 03:04:56;;;;;;;2.40;1.17;;;15.30;99.90;;;;;;5090282;28;20466;-78
2022/07/03 03:07:29;;;;;;;2.33;1.30;;;15.30;99.90;;;;;;5090865;28;20180;-77
2022/07/03 03:09:56;;;;;;;3.00;1.57;;;15.30;99.90;;;;;;5090340;28;20502;-78
2022/07/03 03:12:30;;;;;;;6.07;1.70;;;15.20;99.90;;;;;;5090188;28;20426;-78
2022/07/03 03:15:01;;;;;;;3.57;1.67;;;15.20;99.90;;;;;;5090580;28;20933;-78
2022/07/03 03:17:35;;;;;;;1.83;1.07;;;15.10;99.90;;;;;;5091788;28;20415;-79
2022/07/03 03:20:02;;;;;;;3.17;1.10;;;15.00;99.90;;;;;;5088400;28;20521;-79
2022/07/03 03:22:50;;;;;;;6.90;1.87;;;15.10;99.90;;;;;;5088424;28;20463;-75
2022/07/03 03:25:16;;;;;;;3.80;1.50;;;15.10;99.90;;;;;;5089277;28;20501;-78
2022/07/03 03:27:42;;;;;;;3.03;1.33;;;15.10;99.90;;;;;;5088596;28;20418;-79
2022/07/03 03:30:08;;;;;;;3.40;1.33;;;15.10;99.90;;;;;;5088540;28;20407;-78
2022/07/03 03:32:36;;;;;;;2.40;1.40;;;15.10;99.90;;;;;;5088352;28;20953;-79
2022/07/03 03:35:02;;;;;;;2.33;1.20;;;15.10;99.90;;;;;;5080271;28;20781;-79
2022/07/03 03:37:28;;;;;;;2.10;1.30;;;15.10;99.90;;;;;;5083021;28;20415;-78
2022/07/03 03:39:54;;;;;;;2.00;1.23;;;15.10;99.90;;;;;;5088324;28;20505;-77
2022/07/03 03:42:20;;;;;;;2.57;1.30;;;15.10;99.90;;;;;;5088807;28;20567;-76
2022/07/03 03:44:45;;;;;;;3.07;1.17;;;15.10;99.90;;;;;;5089771;28;20276;-77
2022/07/03 03:47:11;;;;;;;3.17;1.50;;;15.00;99.90;;;;;;5090247;28;20587;-79
2022/07/03 03:49:37;;;;;;;2.60;1.53;;;15.00;99.90;;;;;;5089345;28;20556;-77
2022/07/03 03:52:03;;;;;;;2.70;1.43;;;15.00;99.90;;;;;;5089925;28;20172;-75
2022/07/03 03:54:28;;;;;;;8.40;1.70;;;14.90;99.90;;;;;;5088643;28;20184;-73
2022/07/03 03:56:54;;;;;;;2.93;1.40;;;14.90;99.90;;;;;;5090021;28;20947;-78
2022/07/03 03:59:20;;;;;;;3.10;1.40;;;14.80;99.90;;;;;;5090203;28;20192;-77
2022/07/03 04:01:47;;;;;;;3.17;1.37;;;14.80;99.90;;;;;;5090293;28;20180;-76
2022/07/03 04:04:17;;;;;;;2.60;1.43;;;14.80;99.90;;;;;;5093526;28;20422;-78
2022/07/03 04:06:43;;;;;;;2.50;1.40;;;14.80;99.90;;;;;;5079762;28;20444;-78
2022/07/03 04:09:09;;;;;;;2.33;1.50;;;14.80;99.90;;;;;;5086170;28;20415;-77
2022/07/03 04:11:35;;;;;;;5.00;1.83;;;14.80;99.90;;;;;;5093732;28;20623;-77
2022/07/03 04:14:00;;;;;;;4.80;1.60;;;14.70;99.90;;;;;;5093785;28;20203;-76
2022/07/03 04:16:27;;;;;;;6.77;2.00;;;14.80;99.90;;;;;;5092968;28;20187;-79
2022/07/03 04:18:53;;;;;;;1.97;1.10;;;14.80;99.90;;;;;;5093299;28;20641;-78
2022/07/03 04:21:18;;;;;;;2.53;1.13;;;14.90;99.90;;;;;;5086404;28;20443;-78
2022/07/03 04:23:44;;;;;;;4.40;1.60;;;15.00;99.90;;;;;;5085639;28;20250;-79
2022/07/03 04:26:09;;;;;;;2.80;1.37;;;15.00;99.90;;;;;;5091587;28;20772;-78
2022/07/03 04:28:35;;;;;;;2.00;1.10;;;15.10;99.90;;;;;;5091952;28;20548;-77
2022/07/03 04:31:01;;;;;;;4.33;1.43;;;15.10;99.90;;;;;;5091985;28;20180;-77
2022/07/03 04:33:26;;;;;;;2.37;1.20;;;15.20;99.90;;;;;;5082499;28;20201;-78
2022/07/03 04:35:52;;;;;;;1.90;1.10;;;15.20;99.90;;;;;;5086541;28;20192;-78
2022/07/03 04:38:18;;;;;;;4.30;1.40;;;15.30;99.90;;;;;;5091505;28;20184;-78
2022/07/03 04:40:43;;;;;;;4.13;1.43;;;15.40;99.90;;;;;;5091183;28;20628;-77
2022/07/03 04:43:09;;;;;;;2.40;1.40;;;15.40;99.90;;;;;;5090549;28;20696;-78
2022/07/03 04:45:35;;;;;;;2.80;1.43;;;15.50;99.90;;;;;;5090820;28;20207;-73
2022/07/03 04:48:00;;;;;;;2.97;1.77;;;15.60;99.90;;;;;;5092333;28;20233;-79
2022/07/03 04:50:26;;;;;;;18.87;1.70;;;15.70;99.90;;;;;;5092899;28;20181;-77
2022/07/03 04:52:51;;;;;;;11.40;1.37;;;15.80;99.90;;;;;;5092682;28;20227;-78
2022/07/03 04:55:17;;;;;;;1.93;1.00;;;15.80;99.90;;;;;;5092889;28;20656;-75
2022/07/03 04:57:43;;;;;;;3.00;1.57;;;15.80;99.90;;;;;;5092734;28;20185;-79
2022/07/03 05:00:09;;;;;;;2.33;1.10;;;15.90;99.90;;;;;;5093061;28;20580;-78
2022/07/03 05:02:35;;;;;;;9.80;1.67;;;16.00;99.90;;;;;;5092670;28;20206;-77
2022/07/03 05:05:01;;;;;;;2.60;1.00;;;16.10;99.90;;;;;;5087890;28;20490;-77
2022/07/03 05:07:26;;;;;;;2.33;1.10;;;16.20;99.90;;;;;;5082466;28;21011;-77
2022/07/03 05:09:52;;;;;;;3.83;1.50;;;16.30;99.90;;;;;;5092820;28;20184;-79
2022/07/03 05:12:18;;;;;;;1.50;0.77;;;16.40;99.90;;;;;;5092227;28;20257;-78
2022/07/03 05:14:43;;;;;;;1.80;1.00;;;16.40;99.90;;;;;;5091669;28;20181;-78
2022/07/03 05:17:09;;;;;;;2.73;1.30;;;16.50;99.90;;;;;;5093703;28;20180;-78
2022/07/03 05:19:38;;;;;;;2.90;1.10;;;16.60;99.90;;;;;;5092874;28;20211;-78
2022/07/03 05:22:03;;;;;;;2.00;1.20;;;16.70;99.90;;;;;;5082924;28;20494;-78
2022/07/03 05:24:29;;;;;;;3.50;1.20;;;16.70;99.90;;;;;;5091680;28;20511;-78
2022/07/03 05:26:55;;;;;;;2.43;1.10;;;16.90;99.90;;;;;;5090770;28;20207;-80
2022/07/03 05:29:20;;;;;;;3.83;1.53;;;17.00;99.90;;;;;;5090350;28;20183;-78
2022/07/03 05:31:46;;;;;;;2.80;1.30;;;17.10;99.90;;;;;;5090670;28;20272;-78
2022/07/03 05:34:12;;;;;;;2.30;0.90;;;17.20;99.90;;;;;;5090739;28;20211;-78
2022/07/03 05:36:38;;;;;;;2.20;1.33;;;17.20;99.90;;;;;;5091322;28;20446;-78
2022/07/03 05:41:47;;;;;;;2.37;1.50;;;17.30;99.90;;;;;;5090946;28;20178;-78
2022/07/03 05:44:13;;;;;;;2.20;1.30;;;17.40;99.90;;;;;;5090548;28;20485;-80
2022/07/03 05:46:39;;;;;;;2.33;1.20;;;17.50;99.90;;;;;;5091274;28;20810;-78
2022/07/03 05:49:05;;;;;;;2.83;1.30;;;17.60;99.90;;;;;;5092173;28;20183;-77
2022/07/03 05:51:30;;;;;;;2.00;0.83;;;17.60;99.90;;;;;;5092493;28;20172;-78
2022/07/03 05:53:56;;;;;;;2.20;1.10;;;17.60;99.90;;;;;;5092269;28;20445;-78
2022/07/03 05:56:22;;;;;;;2.60;1.23;;;17.70;99.90;;;;;;5093539;28;20498;-80
2022/07/03 05:58:47;;;;;;;3.10;1.00;;;17.90;99.90;;;;;;5093169;28;20177;-77
2022/07/03 06:01:13;;;;;;;1.90;0.87;;;17.90;99.90;;;;;;5092359;28;20278;-78
2022/07/03 06:03:38;;;;;;;2.00;0.80;;;18.00;99.90;;;;;;5078300;28;20196;-78
2022/07/03 06:06:04;;;;;;;2.73;1.30;;;18.10;99.90;;;;;;5092687;28;20618;-77
2022/07/03 06:08:30;;;;;;;1.60;0.90;;;18.10;99.90;;;;;;5092804;28;20172;-78
2022/07/03 06:10:55;;;;;;;3.10;1.30;;;18.20;99.90;;;;;;5091810;28;20192;-76
2022/07/03 06:13:21;;;;;;;1.80;0.90;;;18.20;99.90;;;;;;5090750;28;20196;-76
2022/07/03 06:15:47;;;;;;;1.70;0.70;;;18.30;99.90;;;;;;5079788;28;20218;-78
2022/07/03 06:18:13;;;;;;;5.60;1.10;;;18.40;99.90;;;;;;5092501;28;20188;-75
2022/07/03 06:20:38;;;;;;;2.60;1.40;;;18.50;99.90;;;;;;5089123;28;20235;-78
2022/07/03 06:23:04;;;;;;;2.17;0.80;;;18.60;99.90;;;;;;5088337;28;20215;-79
2022/07/03 06:25:29;;;;;;;1.70;0.80;;;18.70;99.90;;;;;;5081404;28;20205;-77
2022/07/03 06:27:55;;;;;;;2.00;1.00;;;18.90;99.90;;;;;;5070427;28;20644;-79
2022/07/03 06:30:21;;;;;;;1.50;0.70;;;19.10;99.90;;;;;;5071148;28;20221;-78
2022/07/03 06:32:46;;;;;;;1.43;0.70;;;19.20;99.90;;;;;;5068863;28;20193;-77
2022/07/03 06:35:12;;;;;;;4.30;0.90;;;19.20;99.90;;;;;;5068166;28;20180;-79
2022/07/03 06:37:37;;;;;;;3.70;1.23;;;19.30;99.90;;;;;;5082410;28;20185;-79
2022/07/03 06:40:04;;;;;;;2.20;1.00;;;19.40;99.90;;;;;;5081748;28;20183;-77
2022/07/03 06:42:29;;;;;;;1.90;0.90;;;19.40;99.90;;;;;;5075442;28;20412;-77
2022/07/03 06:44:55;;;;;;;3.00;0.70;;;19.50;99.90;;;;;;5072019;28;21057;-77
2022/07/03 06:47:21;;;;;;;1.70;0.83;;;19.60;99.90;;;;;;5071442;28;20177;-75
2022/07/03 06:49:46;;;;;;;4.80;1.37;;;19.70;99.90;;;;;;5075732;28;20208;-79
2022/07/03 06:52:12;;;;;;;2.73;0.90;;;19.80;99.90;;;;;;5079017;28;20197;-77
2022/07/03 06:54:39;;;;;;;4.53;1.30;;;19.80;99.90;;;;;;5077304;28;20677;-78
2022/07/03 06:57:05;;;;;;;1.80;0.70;;;20.00;99.90;;;;;;5071993;28;20602;-76
2022/07/03 06:59:31;;;;;;;3.10;0.90;;;20.00;99.90;;;;;;5085989;28;20419;-80
2022/07/03 07:01:56;;;;;;;1.83;1.00;;;20.20;99.90;;;;;;5072449;28;20215;-81
2022/07/03 07:04:22;;;;;;;1.60;0.70;;;20.30;99.90;;;;;;5071861;28;20185;-77
2022/07/03 07:06:48;;;;;;;1.67;0.80;;;20.40;99.80;;;;;;5076792;28;20172;-77
2022/07/03 07:09:13;;;;;;;2.20;1.03;;;20.60;99.90;;;;;;5091829;28;20671;-77
2022/07/03 07:11:39;;;;;;;2.90;1.10;;;20.70;99.00;;;;;;5076864;28;20204;-79
2022/07/03 07:14:04;;;;;;;3.30;1.27;;;20.80;99.20;;;;;;5084344;28;20212;-78
2022/07/03 07:16:30;;;;;;;1.43;0.60;;;21.00;98.50;;;;;;5078573;28;20184;-79
2022/07/03 07:18:56;;;;;;;1.67;0.70;;;21.10;99.10;;;;;;5087099;28;20207;-78
2022/07/03 07:21:21;;;;;;;4.10;1.03;;;21.30;97.10;;;;;;5082572;28;20746;-78
2022/07/03 07:23:47;;;;;;;2.37;0.90;;;21.50;96.70;;;;;;5100983;28;20219;-84
2022/07/03 07:26:12;;;;;;;2.70;1.23;;;21.80;96.40;;;;;;5114806;28;20224;-85
2022/07/03 07:28:38;;;;;;;3.20;1.23;;;22.00;97.10;;;;;;5115077;28;20169;-84
2022/07/03 07:31:04;;;;;;;1.60;0.80;;;22.50;95.80;;;;;;5113694;28;20183;-81
2022/07/03 07:33:29;;;;;;;2.43;0.83;;;23.00;96.00;;;;;;5114768;28;20465;-85
2022/07/03 07:35:55;;;;;;;2.13;0.97;;;23.40;94.00;;;;;;5113248;28;20201;-83
2022/07/03 07:38:21;;;;;;;1.70;0.80;;;23.80;94.40;;;;;;5104784;28;20235;-84
2022/07/03 07:40:47;;;;;;;2.47;1.23;;;24.20;94.00;;;;;;5111010;28;20440;-78
2022/07/03 07:43:13;;;;;;;2.27;0.93;;;24.50;92.80;;;;;;5089873;28;20212;-81
2022/07/03 07:45:38;;;;;;;1.80;0.80;;;25.20;93.00;;;;;;5080602;28;20215;-79
2022/07/03 07:48:04;;;;;;;1.65;0.70;;;26.50;90.50;;;;;;5076343;28;20180;-79
2022/07/03 07:50:30;;;;;;;1.80;0.80;;;27.30;85.80;;;;;;5074224;28;20719;-79
2022/07/03 07:52:56;;;;;;;1.70;0.73;;;28.30;81.60;;;;;;5073665;28;20205;-78
2022/07/03 07:55:21;;;;;;;2.13;1.10;;;28.80;80.00;;;;;;5084613;28;20181;-79
2022/07/03 07:57:48;;;;;;;1.80;0.80;;;29.40;78.60;;;;;;5073584;28;20656;-81
2022/07/03 08:00:16;;;;;;;2.20;1.00;;;29.90;75.20;;;;;;5075868;28;20200;-79
2022/07/03 08:05:36;;;;;;;2.20;0.90;;;30.60;70.80;;;;;;5073850;28;20287;-78
2022/07/03 08:08:05;;;;;;;1.80;0.90;;;30.90;70.50;;;;;;5074034;28;20695;-79
2022/07/03 08:10:42;;;;;;;2.83;0.88;;;30.50;71.60;;;;;;5081662;28;20296;-82
2022/07/03 08:13:09;;;;;;;1.70;0.77;;;30.60;70.80;;;;;;5073422;28;20219;-78
2022/07/03 08:15:35;;;;;;;1.90;0.80;;;30.80;66.00;;;;;;5073345;28;20260;-79
2022/07/03 08:18:01;;;;;;;5.22;1.15;;;30.30;69.50;;;;;;5077727;28;20188;-80
2022/07/03 08:20:28;;;;;;;1.83;0.80;;;30.50;68.70;;;;;;5077404;28;20176;-78
2022/07/03 08:22:53;;;;;;;1.85;0.90;;;31.00;65.40;;;;;;5100589;28;20195;-85
2022/07/03 08:25:19;;;;;;;1.75;0.77;;;30.60;67.00;;;;;;5113396;28;20215;-86
2022/07/03 08:27:45;;;;;;;2.80;1.08;;;30.50;67.50;;;;;;5117640;28;20371;-85
2022/07/03 08:30:13;;;;;;;1.98;0.90;;;30.70;66.80;;;;;;5118402;28;20217;-85
2022/07/03 08:32:39;;;;;;;2.17;0.90;;;30.80;65.90;;;;;;5118475;28;20200;-84
2022/07/03 08:35:05;;;;;;;4.03;1.30;;;31.70;62.20;;;;;;5117654;28;20184;-82
2022/07/03 08:37:31;;;;;;;3.25;0.80;;;30.90;63.30;;;;;;5113328;28;20190;-80
2022/07/03 08:39:56;;;;;;;3.97;1.00;;;31.10;63.60;;;;;;5105638;28;20624;-75
2022/07/03 08:42:23;;;;;;;1.70;0.80;;;30.70;63.20;;;;;;5090957;28;20295;-79
2022/07/03 08:44:50;;;;;;;1.75;0.77;;;31.00;63.70;;;;;;5091624;28;20218;-79
2022/07/03 08:47:17;;;;;;;5.55;0.80;;;31.10;63.00;;;;;;5080205;28;20693;-80
2022/07/03 08:49:44;;;;;;;3.45;1.08;;;30.80;65.30;;;;;;5087691;28;20641;-80
2022/07/03 08:52:11;;;;;;;2.60;0.95;;;30.80;63.80;;;;;;5092126;28;20504;-78
2022/07/03 08:54:37;;;;;;;1.80;0.80;;;30.70;64.60;;;;;;5086388;28;20256;-79
2022/07/03 08:57:04;;;;;;;2.58;1.00;;;31.20;61.90;;;;;;5080420;28;20176;-79
2022/07/03 08:59:36;;;;;;;2.10;0.88;;;31.30;62.40;;;;;;5092824;28;20186;-79
2022/07/03 09:02:04;;;;;;;7.07;1.17;;;30.90;64.80;;;;;;5092354;28;20691;-78
2022/07/03 09:04:33;;;;;;;6.63;0.82;;;31.00;61.30;;;;;;5095175;28;20218;-77
2022/07/03 09:07:00;;;;;;;8.23;0.93;;;31.10;62.50;;;;;;5092765;28;20167;-79
2022/07/03 09:09:26;;;;;;;5.45;0.90;;;31.10;63.00;;;;;;5092317;28;20247;-80
2022/07/03 09:11:52;;;;;;;1.88;0.90;;;31.10;57.00;;;;;;5092034;28;20186;-79
2022/07/03 09:14:18;;;;;;;1.60;0.60;;;31.00;60.60;;;;;;5092766;28;20623;-79
2022/07/03 09:16:44;;;;;;;1.83;0.65;;;31.40;59.30;;;;;;5092532;28;20700;-79
2022/07/03 09:19:10;;;;;;;2.00;0.73;;;31.30;57.30;;;;;;5093694;28;20310;-79
2022/07/03 09:21:40;;;;;;;1.70;0.82;;;31.10;59.20;;;;;;5090878;28;20229;-78
2022/07/03 09:24:08;;;;;;;4.32;1.13;;;30.80;58.60;;;;;;5084773;28;20238;-79
2022/07/03 09:26:35;;;;;;;1.80;0.80;;;30.80;58.10;;;;;;5086346;28;20199;-79
2022/07/03 09:29:03;;;;;;;1.90;0.70;;;30.90;59.70;;;;;;5079068;28;20728;-79
2022/07/03 09:31:30;;;;;;;1.80;0.80;;;31.30;59.20;;;;;;5087037;28;20661;-77
2022/07/03 09:34:01;;;;;;;1.50;0.60;;;31.30;58.80;;;;;;5084235;28;20703;-79
2022/07/03 09:36:44;;;;;;;1.98;0.82;;;31.00;58.50;;;;;;5086211;28;20191;-78
2022/07/03 09:39:20;;;;;;;1.90;0.85;;;30.90;58.30;;;;;;5090336;28;20192;-79
2022/07/03 09:41:58;;;;;;;1.73;0.75;;;31.20;57.10;;;;;;5076526;28;20188;-79
2022/07/03 09:44:45;;;;;;;1.90;0.90;;;30.90;59.80;;;;;;5073986;28;20275;-80
2022/07/03 09:47:24;;;;;;;2.33;0.75;;;30.60;59.50;;;;;;5086305;28;20180;-79
2022/07/03 09:49:55;;;;;;;2.00;1.00;;;30.40;61.40;;;;;;5096426;28;20263;-80
2022/07/03 09:52:59;;;;;;;4.20;0.98;;;30.40;62.30;;;;;;5082748;28;20234;-77
2022/07/03 09:55:25;;;;;;;1.70;0.65;;;29.90;60.00;;;;;;5042204;28;20267;-79
2022/07/03 09:57:51;;;;;;;1.70;0.70;;;30.60;59.60;;;;;;5046176;28;20279;-80
2022/07/03 10:00:20;;;;;;;1.70;0.82;;;30.20;61.50;;;;;;5051600;28;20196;-78
2022/07/03 10:03:03;;;;;;;2.13;0.80;;;30.40;60.00;;;;;;5089035;28;20211;-78
2022/07/03 10:05:36;;;;;;;16.50;1.25;;;29.90;60.40;;;;;;5089268;28;20296;-81
2022/07/03 10:08:11;;;;;;;1.70;0.80;;;29.70;63.10;;;;;;5086177;28;20176;-80
2022/07/03 10:10:45;;;;;;;1.65;0.75;;;29.90;61.40;;;;;;5089376;28;20199;-80
2022/07/03 10:13:11;;;;;;;1.85;0.70;;;29.90;60.40;;;;;;5087957;28;20337;-81
2022/07/03 10:15:38;;;;;;;2.15;0.90;;;30.00;60.60;;;;;;5089513;28;20203;-80
2022/07/03 10:18:09;;;;;;;1.67;0.75;;;30.10;59.30;;;;;;5085952;28;20212;-79
2022/07/03 10:20:40;;;;;;;1.58;0.65;;;29.80;61.80;;;;;;5081996;28;20181;-82
2022/07/03 10:23:06;;;;;;;1.50;0.60;;;30.20;58.50;;;;;;5084902;28;20192;-78
2022/07/03 10:25:33;;;;;;;1.70;0.82;;;29.90;62.30;;;;;;5081120;28;20212;-78
2022/07/03 10:28:00;;;;;;;1.60;0.65;;;29.80;66.50;;;;;;5085780;28;20175;-79
2022/07/03 10:30:26;;;;;;;2.53;0.88;;;29.50;61.00;;;;;;5088031;28;20675;-80
2022/07/03 10:32:53;;;;;;;2.33;0.68;;;29.40;64.70;;;;;;5089844;28;20270;-79
2022/07/03 10:35:21;;;;;;;2.15;0.88;;;29.20;64.50;;;;;;5082124;28;20228;-79
2022/07/03 10:38:13;;;;;;;1.70;0.80;;;29.10;62.90;;;;;;5080791;28;20208;-78
2022/07/03 10:46:31;;;;;;;1.70;0.60;;;28.60;62.90;;;;;;5081874;28;20676;-78
2022/07/03 10:48:57;;;;;;;1.90;0.70;;;28.70;62.40;;;;;;5086939;28;20267;-78
2022/07/03 10:51:23;;;;;;;1.60;0.70;;;28.60;64.00;;;;;;5078377;28;20239;-79
2022/07/03 10:53:49;;;;;;;1.60;0.70;;;28.80;65.30;;;;;;5079664;28;20210;-78
2022/07/03 10:56:15;;;;;;;1.70;0.60;;;28.70;64.30;;;;;;5078314;28;20184;-79
2022/07/03 10:58:59;;;;;;;1.70;0.70;;;28.70;64.40;;;;;;5081016;28;20616;-78
2022/07/03 11:01:32;;;;;;;3.17;1.13;;;28.30;62.70;;;;;;5083370;28;20195;-78
2022/07/03 11:04:00;;;;;;;1.80;0.80;;;28.40;64.30;;;;;;5086623;28;20191;-78
2022/07/03 11:06:44;;;;;;;1.90;0.60;;;28.40;67.10;;;;;;5076164;28;20304;-78
2022/07/03 11:09:12;;;;;;;1.47;0.60;;;28.30;64.50;;;;;;5088589;28;20171;-78
2022/07/03 11:11:57;;;;;;;1.77;0.80;;;28.30;65.10;;;;;;5085438;28;20202;-78
2022/07/03 11:14:27;;;;;;;1.60;0.70;;;28.20;62.70;;;;;;5083578;28;20183;-80
2022/07/03 11:17:21;;;;;;;1.90;0.53;;;28.50;66.30;;;;;;5080143;28;20652;-78
2022/07/03 11:22:59;;;;;;;1.60;0.70;;;28.80;61.90;;;;;;5089168;28;20278;-79
2022/07/03 11:25:25;;;;;;;2.13;0.60;;;29.10;61.30;;;;;;5087915;28;20227;-78
2022/07/03 11:27:52;;;;;;;1.98;0.60;;;29.00;62.70;;;;;;5089564;28;20550;-78
2022/07/03 11:30:18;;;;;;;1.70;0.80;;;29.10;59.90;;;;;;5092418;28;20671;-75
2022/07/03 11:32:52;;;;;;;1.60;0.70;;;29.20;64.60;;;;;;5089094;28;20196;-79
2022/07/03 11:35:47;;;;;;;1.67;0.70;;;29.30;58.10;;;;;;5077875;28;20176;-79
2022/07/03 11:38:15;;;;;;;2.17;0.80;;;28.80;59.80;;;;;;5077897;28;20234;-78
2022/07/03 11:40:43;;;;;;;1.90;0.90;;;28.60;60.80;;;;;;5079927;28;20541;-79
2022/07/03 11:43:10;;;;;;;1.53;0.60;;;28.80;60.10;;;;;;5083870;28;20726;-77
2022/07/03 11:45:39;;;;;;;2.63;0.63;;;28.90;60.10;;;;;;5083978;28;20212;-79
2022/07/03 11:48:17;;;;;;;1.75;0.60;;;29.10;63.10;;;;;;5085092;28;20343;-79
2022/07/03 11:50:45;;;;;;;1.67;0.73;;;29.00;61.70;;;;;;5083247;28;20676;-78
2022/07/03 11:53:32;;;;;;;2.35;0.80;;;28.90;58.80;;;;;;5086792;28;20637;-78
2022/07/03 11:55:59;;;;;;;1.88;0.88;;;29.00;61.00;;;;;;5087874;28;20245;-78
2022/07/03 11:58:38;;;;;;;2.25;0.98;;;29.20;60.70;;;;;;5093275;28;20186;-79
2022/07/03 12:01:04;;;;;;;1.50;0.60;;;29.30;61.60;;;;;;5089293;28;20202;-80
2022/07/03 12:03:30;;;;;;;1.70;0.63;;;29.20;58.30;;;;;;5088841;28;20200;-79
2022/07/03 12:05:59;;;;;;;3.05;0.85;;;29.30;61.00;;;;;;5092906;28;20282;-80
2022/07/03 12:08:28;;;;;;;2.15;0.80;;;29.30;60.60;;;;;;5092094;28;20172;-78
2022/07/03 12:11:17;;;;;;;1.80;0.60;;;29.50;56.40;;;;;;5088173;28;20184;-78
2022/07/03 12:13:44;;;;;;;1.90;0.88;;;29.50;56.10;;;;;;5082164;28;20682;-80
2022/07/03 12:16:14;;;;;;;2.60;0.60;;;29.40;59.40;;;;;;5090096;28;20564;-78
2022/07/03 12:18:53;;;;;;;2.03;0.73;;;29.40;57.10;;;;;;5088506;28;20231;-75
2022/07/03 12:21:23;;;;;;;1.48;0.50;;;29.70;58.60;;;;;;5087560;28;20189;-78
2022/07/03 12:23:55;;;;;;;3.35;0.70;;;29.60;58.20;;;;;;5084262;28;20257;-78
2022/07/03 12:26:47;;;;;;;3.00;0.80;;;29.60;57.90;;;;;;5088333;28;20218;-80
2022/07/03 12:29:15;;;;;;;1.40;0.50;;;29.60;55.40;;;;;;5100717;28;20271;-78
2022/07/03 12:31:45;;;;;;;1.77;0.60;;;29.50;59.60;;;;;;5093115;28;20334;-81
2022/07/03 12:34:12;;;;;;;1.75;0.75;;;29.20;55.60;;;;;;5084857;28;20180;-76
2022/07/03 12:36:39;;;;;;;1.40;0.60;;;29.30;59.60;;;;;;5094202;28;20333;-78
2022/07/03 12:39:04;;;;;;;1.92;0.77;;;29.30;58.50;;;;;;5082413;28;20180;-79
2022/07/03 12:41:30;;;;;;;1.58;0.63;;;29.20;58.60;;;;;;5077212;28;20241;-82
2022/07/03 12:43:58;;;;;;;8.10;0.98;;;29.40;63.30;;;;;;5080531;28;20577;-78
2022/07/03 12:46:35;;;;;;;1.45;0.55;;;29.60;57.70;;;;;;5092336;28;20202;-79
2022/07/03 12:49:09;;;;;;;2.00;0.80;;;29.60;58.60;;;;;;5093106;28;20225;-78
2022/07/03 12:51:53;;;;;;;4.80;0.60;;;29.70;60.00;;;;;;5079731;28;20171;-79
2022/07/03 12:54:30;;;;;;;1.73;0.70;;;29.90;58.20;;;;;;5087693;28;20179;-79
2022/07/03 13:00:19;;;;;;;1.65;0.68;;;30.10;56.60;;;;;;5090238;28;20717;-78
2022/07/03 13:02:47;;;;;;;1.60;0.63;;;30.20;56.60;;;;;;5089044;28;20223;-78
2022/07/03 13:05:18;;;;;;;1.48;0.57;;;30.10;55.30;;;;;;5089676;28;20632;-78
2022/07/03 13:07:51;;;;;;;1.60;0.70;;;30.20;58.00;;;;;;5086653;28;20649;-78
2022/07/03 13:10:19;;;;;;;2.53;0.80;;;30.30;57.60;;;;;;5076582;28;20208;-77
2022/07/03 13:12:58;;;;;;;2.25;0.68;;;30.40;56.10;;;;;;5072705;28;20196;-82
2022/07/03 13:15:28;;;;;;;1.92;0.80;;;30.60;57.70;;;;;;5079995;28;20673;-81